CheckWX is a tool to help pilots better visualize weather data.  It is not intended as a substitute for an official pre-flight weather briefing.

07:56:03 UTC

KMDW TAF
Chicago Midway International Airport
Chicago, Illinois, USA
KMDW 240530Z 2406/2512 27006KT P6SM BKN250 FM240700 33006KT P6SM BKN200 FM241000 02008KT P6SM FEW015 BKN150 FM241500 05011KT P6SM FEW020 OVC120 FM242100 05012G18KT 6SM -RA BKN025 OVC050 FM250300 05014G21KT 4SM -RA BKN008 OVC015

Feb-24@
06:00 UTC

Feb-24 @ 06:00 UTC

Feb-24@
07:00 UTC

Feb-24 @ 07:00 UTC

KMDW 240530Z 2406/2512 27006KT P6SM BKN250

Expired

Wind
  • 270° at 6 KTS
Cloud Levels
  • Broken at 25,000' AGL

Feb-24@
07:00 UTC

Feb-24 @ 07:00 UTC

Feb-24@
10:00 UTC

Feb-24 @ 10:00 UTC

FM240700 33006KT P6SM BKN200

From

From Standard forecast or significant change

Wind
  • 330° at 6 KTS
Cloud Levels
  • Broken at 20,000' AGL

Feb-24@
10:00 UTC

Feb-24 @ 10:00 UTC

Feb-24@
15:00 UTC

Feb-24 @ 15:00 UTC

FM241000 02008KT P6SM FEW015 BKN150

From

From Standard forecast or significant change

Wind
  • 020° at 8 KTS
Cloud Levels
  • Few at 1,500' AGL
  • Broken at 15,000' AGL

Feb-24@
15:00 UTC

Feb-24 @ 15:00 UTC

Feb-24@
21:00 UTC

Feb-24 @ 21:00 UTC

FM241500 05011KT P6SM FEW020 OVC120

From

From Standard forecast or significant change

Wind
  • 050° at 11 KTS
Cloud Levels
  • Few at 2,000' AGL
  • Overcast at 12,000' AGL

Feb-24@
21:00 UTC

Feb-24 @ 21:00 UTC

Feb-25@
03:00 UTC

Feb-25 @ 03:00 UTC

FM242100 05012G18KT 6SM -RA BKN025 OVC050

From

From Standard forecast or significant change

Wind
  • 050° at 12 KTS
  • {Gusting to 18 KTS
Conditions
Light Rain
Cloud Levels
  • Broken at 2,500' AGL
  • Overcast at 5,000' AGL

Feb-25@
03:00 UTC

Feb-25 @ 03:00 UTC

Feb-25@
12:00 UTC

Feb-25 @ 12:00 UTC

FM250300 05014G21KT 4SM -RA BKN008 OVC015

From

From Standard forecast or significant change

Wind
  • 050° at 14 KTS
  • {Gusting to 21 KTS
Conditions
Light Rain
Cloud Levels
  • Broken at 800' AGL
  • Overcast at 1,500' AGL